createdAt,value
2022-10-14T00:01:31.180Z,2
2022-10-14T00:03:14.570Z,2
2022-10-14T00:04:58.009Z,2
2022-10-14T00:10:07.287Z,1
2022-10-14T00:11:50.605Z,1
2022-10-14T00:13:34.030Z,0
2022-10-14T00:15:17.382Z,1
2022-10-14T00:17:00.816Z,1
2022-10-14T00:18:44.231Z,1
2022-10-14T00:20:27.589Z,2
2022-10-14T00:22:10.987Z,1
2022-10-14T00:25:37.527Z,1
2022-10-14T00:27:20.910Z,2
2022-10-14T00:29:04.291Z,1
2022-10-14T00:30:47.701Z,1
2022-10-14T00:32:31.042Z,1
2022-10-14T00:34:14.476Z,1
2022-10-14T00:35:57.834Z,1
2022-10-14T00:37:41.227Z,1
2022-10-14T00:41:07.806Z,2
2022-10-14T00:42:51.125Z,1
2022-10-14T00:44:34.506Z,1
2022-10-14T00:46:17.878Z,1
2022-10-14T00:48:01.290Z,1
2022-10-14T00:49:44.711Z,1
2022-10-14T00:51:28.072Z,1
2022-10-14T00:53:11.472Z,1
2022-10-14T00:54:55.202Z,2
2022-10-14T00:56:38.591Z,1
2022-10-14T00:58:22.021Z,1
2022-10-14T01:00:05.361Z,1
2022-10-14T01:01:48.792Z,1
2022-10-14T01:03:32.160Z,1
2022-10-14T01:05:15.563Z,1
2022-10-14T01:06:58.998Z,2
2022-10-14T01:10:25.423Z,0
2022-10-14T01:12:08.841Z,1
2022-10-14T01:13:52.220Z,1
2022-10-14T01:15:35.622Z,1
2022-10-14T01:17:19.072Z,1
2022-10-14T01:19:02.386Z,1
2022-10-14T01:20:45.807Z,1
2022-10-14T01:25:55.050Z,1
2022-10-14T01:27:38.534Z,1
2022-10-14T01:29:21.819Z,1
2022-10-14T01:31:05.249Z,1
2022-10-14T01:32:48.670Z,0
2022-10-14T01:34:32.027Z,1
2022-10-14T01:36:15.496Z,1
2022-10-14T01:41:24.697Z,1
2022-10-14T01:43:08.137Z,1
2022-10-14T01:44:51.457Z,0
2022-10-14T01:46:34.829Z,1
2022-10-14T01:48:18.237Z,0
2022-10-14T01:50:01.686Z,1
2022-10-14T01:51:45.022Z,0
2022-10-14T01:56:54.275Z,1
2022-10-14T01:58:37.670Z,1
2022-10-14T02:00:21.100Z,1
2022-10-14T02:02:04.467Z,1
2022-10-14T02:03:47.864Z,1
2022-10-14T02:05:31.403Z,2
2022-10-14T02:07:14.736Z,1
2022-10-14T02:12:23.887Z,1
2022-10-14T02:14:07.307Z,1
2022-10-14T02:15:50.704Z,1
2022-10-14T02:17:34.101Z,1
2022-10-14T02:19:17.514Z,2
2022-10-14T02:21:00.877Z,1
2022-10-14T02:22:44.283Z,1
2022-10-14T02:27:53.542Z,1
2022-10-14T02:29:36.954Z,1
2022-10-14T02:31:20.289Z,1
2022-10-14T02:33:03.765Z,1
2022-10-14T02:34:47.098Z,1
2022-10-14T02:36:30.483Z,1
2022-10-14T02:38:13.965Z,1
2022-10-14T02:43:23.179Z,2
2022-10-14T02:45:06.571Z,1
2022-10-14T02:46:49.922Z,1
2022-10-14T02:48:33.370Z,1
2022-10-14T02:50:16.718Z,1
2022-10-14T02:52:00.129Z,1
2022-10-14T02:55:26.895Z,1
2022-10-14T02:57:10.594Z,1
2022-10-14T02:58:54.012Z,1
2022-10-14T03:00:37.384Z,1
2022-10-14T03:02:20.785Z,1
2022-10-14T03:04:04.237Z,1
2022-10-14T03:05:47.617Z,1
2022-10-14T03:07:30.978Z,1
2022-10-14T03:09:14.428Z,1
2022-10-14T03:12:40.936Z,1
2022-10-14T03:14:24.268Z,1
2022-10-14T03:16:07.634Z,1
2022-10-14T03:17:51.043Z,1
2022-10-14T03:19:34.462Z,1
2022-10-14T03:21:17.830Z,1
2022-10-14T03:23:01.266Z,1
2022-10-14T03:24:44.667Z,0
2022-10-14T03:28:11.088Z,1
2022-10-14T03:29:54.514Z,1
2022-10-14T03:31:37.892Z,1
2022-10-14T03:33:21.287Z,1
2022-10-14T03:35:04.823Z,1
2022-10-14T03:36:48.074Z,1
2022-10-14T03:38:31.475Z,1
2022-10-14T03:40:14.916Z,1
2022-10-14T03:43:41.374Z,1
2022-10-14T03:45:24.759Z,1
2022-10-14T03:47:08.120Z,1
2022-10-14T03:48:51.530Z,1
2022-10-14T03:50:34.961Z,1
2022-10-14T03:52:18.317Z,1
2022-10-14T03:54:01.719Z,1
2022-10-14T03:59:10.965Z,1
2022-10-14T04:00:54.428Z,1
2022-10-14T04:02:37.797Z,1
2022-10-14T04:04:21.184Z,1
2022-10-14T04:06:04.556Z,1
2022-10-14T04:07:47.938Z,1
2022-10-14T04:09:31.364Z,0
2022-10-14T04:14:40.610Z,0
2022-10-14T04:16:23.981Z,0
2022-10-14T04:18:07.382Z,1
2022-10-14T04:19:50.827Z,2
2022-10-14T04:21:34.190Z,1
2022-10-14T04:23:17.570Z,1
2022-10-14T04:25:01.044Z,1
2022-10-14T04:30:10.267Z,0
2022-10-14T04:31:53.580Z,1
2022-10-14T04:33:37.028Z,1
2022-10-14T04:35:20.395Z,1
2022-10-14T04:37:03.804Z,1
2022-10-14T04:38:47.272Z,1
2022-10-14T04:40:30.565Z,2
2022-10-14T04:45:39.848Z,1
2022-10-14T04:47:23.221Z,0
2022-10-14T04:49:06.717Z,1
2022-10-14T04:50:50.043Z,1
2022-10-14T04:52:33.426Z,1
2022-10-14T04:54:16.783Z,0
2022-10-14T04:56:00.198Z,1
2022-10-14T05:01:09.440Z,1
2022-10-14T05:02:52.874Z,1
2022-10-14T05:04:36.227Z,1
2022-10-14T05:06:19.690Z,1
2022-10-14T05:08:03.007Z,1
2022-10-14T05:09:46.429Z,1
2022-10-14T05:11:29.837Z,1
2022-10-14T05:13:13.229Z,1
2022-10-14T05:14:56.985Z,1
2022-10-14T05:16:40.299Z,1
2022-10-14T05:18:23.729Z,0
2022-10-14T05:20:07.133Z,1
2022-10-14T05:21:50.489Z,1
2022-10-14T05:23:33.923Z,1
2022-10-14T05:25:17.317Z,1
2022-10-14T05:27:00.681Z,0
2022-10-14T05:30:27.241Z,1
2022-10-14T05:32:10.645Z,1
2022-10-14T05:33:54.049Z,0
2022-10-14T05:35:37.346Z,1
2022-10-14T05:37:20.734Z,1
2022-10-14T05:39:04.169Z,1
2022-10-14T05:40:47.585Z,1
2022-10-14T05:42:30.966Z,1
2022-10-14T05:44:14.627Z,0
2022-10-14T05:45:58.085Z,1
2022-10-14T05:47:41.429Z,1
2022-10-14T05:49:24.831Z,1
2022-10-14T05:51:08.282Z,2
2022-10-14T05:52:51.608Z,1
2022-10-14T05:54:35.081Z,1
2022-10-14T05:56:18.465Z,1
2022-10-14T05:58:02.138Z,1
2022-10-14T05:59:45.495Z,1
2022-10-14T06:01:28.920Z,1
2022-10-14T06:03:12.376Z,1
2022-10-14T06:04:55.719Z,1
2022-10-14T06:06:39.193Z,1
2022-10-14T06:08:22.545Z,0
2022-10-14T06:10:05.894Z,1
2022-10-14T06:11:49.600Z,1
2022-10-14T06:13:32.996Z,1
2022-10-14T06:15:16.424Z,1
2022-10-14T06:16:59.777Z,1
2022-10-14T06:18:43.194Z,8
2022-10-14T06:20:26.625Z,12
2022-10-14T06:22:10.056Z,12
2022-10-14T06:23:53.399Z,11
2022-10-14T06:25:37.071Z,19
2022-10-14T06:27:20.515Z,20
2022-10-14T06:29:03.874Z,20
2022-10-14T06:30:47.276Z,22
2022-10-14T06:32:30.719Z,23
2022-10-14T06:34:14.071Z,29
2022-10-14T06:35:57.503Z,34
2022-10-14T06:37:40.824Z,37
2022-10-14T06:39:24.538Z,37
2022-10-14T06:41:07.979Z,38
2022-10-14T06:42:51.393Z,39
2022-10-14T06:44:34.755Z,42
2022-10-14T06:46:18.194Z,44
2022-10-14T06:48:01.560Z,43
2022-10-14T06:49:44.912Z,42
2022-10-14T06:51:28.347Z,41
2022-10-14T06:53:12.022Z,42
2022-10-14T06:54:55.447Z,42
2022-10-14T06:56:38.817Z,44
2022-10-14T06:58:22.223Z,44
2022-10-14T07:00:05.645Z,47
2022-10-14T07:01:49.020Z,47
2022-10-14T07:03:32.428Z,49
2022-10-14T07:05:15.847Z,151
2022-10-14T07:06:59.538Z,171
2022-10-14T07:08:42.883Z,197
2022-10-14T07:10:26.291Z,211
2022-10-14T07:12:09.812Z,222
2022-10-14T07:13:53.181Z,234
2022-10-14T07:15:36.498Z,252
2022-10-14T07:17:19.920Z,262
2022-10-14T07:22:29.170Z,223
2022-10-14T07:24:12.503Z,224
2022-10-14T07:25:55.959Z,222
2022-10-14T07:27:39.326Z,233
2022-10-14T07:29:22.727Z,243
2022-10-14T07:31:06.078Z,254
2022-10-14T07:32:49.489Z,260
2022-10-14T07:36:15.980Z,269
2022-10-14T07:37:59.385Z,273
2022-10-14T07:39:42.748Z,280
2022-10-14T07:41:26.213Z,283
2022-10-14T07:43:09.545Z,280
2022-10-14T07:44:52.947Z,263
2022-10-14T07:46:36.337Z,234
2022-10-14T07:48:19.735Z,225
2022-10-14T07:50:03.533Z,236
2022-10-14T07:51:46.837Z,261
2022-10-14T07:53:30.275Z,301
2022-10-14T07:55:13.650Z,375
2022-10-14T07:56:57.041Z,416
2022-10-14T07:58:40.404Z,437
2022-10-14T08:00:23.804Z,458
2022-10-14T08:02:07.241Z,440
2022-10-14T08:05:33.765Z,391
2022-10-14T08:07:17.205Z,412
2022-10-14T08:09:00.667Z,421
2022-10-14T08:10:43.974Z,475
2022-10-14T08:12:27.393Z,500
2022-10-14T08:14:10.771Z,489
2022-10-14T08:15:54.093Z,488
2022-10-14T08:21:03.380Z,473
2022-10-14T08:22:46.791Z,491
2022-10-14T08:24:30.105Z,497
2022-10-14T08:26:13.488Z,493
2022-10-14T08:27:56.993Z,460
2022-10-14T08:29:40.354Z,399
2022-10-14T08:31:23.690Z,343
2022-10-14T08:34:50.156Z,305
2022-10-14T08:36:33.545Z,324
2022-10-14T08:38:17.006Z,370
2022-10-14T08:40:00.337Z,378
2022-10-14T08:41:43.752Z,342
2022-10-14T08:43:27.181Z,312
2022-10-14T08:45:10.579Z,300
2022-10-14T08:48:37.039Z,293
2022-10-14T08:50:20.378Z,300
2022-10-14T08:52:03.825Z,434
2022-10-14T08:53:47.228Z,404
2022-10-14T08:55:30.614Z,402
2022-10-14T08:57:14.015Z,322
2022-10-14T08:58:57.442Z,327
2022-10-14T09:00:40.831Z,317
2022-10-14T09:02:24.485Z,331
2022-10-14T09:04:07.935Z,347
2022-10-14T09:05:51.326Z,413
2022-10-14T09:07:34.752Z,471
2022-10-14T09:09:18.088Z,496
2022-10-14T09:11:01.536Z,509
2022-10-14T09:12:44.900Z,515
2022-10-14T09:17:54.095Z,506
2022-10-14T09:19:37.585Z,463
2022-10-14T09:21:20.878Z,456
2022-10-14T09:23:04.283Z,437
2022-10-14T09:24:47.745Z,416
2022-10-14T09:26:31.085Z,403
2022-10-14T09:28:14.534Z,407
2022-10-14T09:29:57.913Z,412
2022-10-14T09:31:41.602Z,478
2022-10-14T09:33:24.954Z,478
2022-10-14T09:35:08.385Z,476
2022-10-14T09:36:51.811Z,465
2022-10-14T09:38:35.158Z,443
2022-10-14T09:40:18.573Z,409
2022-10-14T09:42:02.004Z,398
2022-10-14T09:43:45.331Z,421
2022-10-14T09:47:12.041Z,467
2022-10-14T09:48:55.316Z,486
2022-10-14T09:50:38.684Z,513
2022-10-14T09:52:21.995Z,517
2022-10-14T09:54:05.392Z,524
2022-10-14T09:55:48.811Z,541
2022-10-14T09:57:32.175Z,556
2022-10-14T09:59:15.574Z,579
2022-10-14T10:00:59.278Z,621
2022-10-14T10:02:42.698Z,668
2022-10-14T10:04:26.137Z,705
2022-10-14T10:06:09.477Z,737
2022-10-14T10:07:52.901Z,772
2022-10-14T10:09:36.314Z,778
2022-10-14T10:11:19.675Z,778
2022-10-14T10:13:03.125Z,777
2022-10-14T10:16:29.553Z,777
2022-10-14T10:18:12.942Z,777
2022-10-14T10:19:56.343Z,770
2022-10-14T10:21:39.708Z,775
2022-10-14T10:23:23.150Z,753
2022-10-14T10:25:06.563Z,725
2022-10-14T10:26:49.911Z,702
2022-10-14T10:31:59.147Z,647
2022-10-14T10:33:42.590Z,618
2022-10-14T10:35:25.994Z,627
2022-10-14T10:37:09.455Z,631
2022-10-14T10:38:52.722Z,625
2022-10-14T10:40:36.122Z,616
2022-10-14T10:42:19.553Z,598
2022-10-14T10:47:28.793Z,530
2022-10-14T10:49:12.188Z,553
2022-10-14T10:50:55.622Z,577
2022-10-14T10:52:39.005Z,573
2022-10-14T10:54:22.338Z,565
2022-10-14T10:56:05.788Z,593
2022-10-14T10:57:49.131Z,649
2022-10-14T11:01:15.613Z,745
2022-10-14T11:02:59.097Z,766
2022-10-14T11:04:42.461Z,763
2022-10-14T11:06:25.804Z,778
2022-10-14T11:08:09.244Z,776
2022-10-14T11:09:52.623Z,777
2022-10-14T11:11:36.008Z,766
2022-10-14T11:16:45.289Z,778
2022-10-14T11:18:28.636Z,777
2022-10-14T11:20:12.017Z,778
2022-10-14T11:21:55.553Z,778
2022-10-14T11:23:38.817Z,681
2022-10-14T11:25:22.217Z,681
2022-10-14T11:27:05.681Z,730
2022-10-14T11:32:14.896Z,668
2022-10-14T11:33:58.251Z,608
2022-10-14T11:35:41.665Z,581
2022-10-14T11:37:25.094Z,557
2022-10-14T11:39:08.448Z,543
2022-10-14T11:40:51.883Z,544
2022-10-14T11:42:35.262Z,502
2022-10-14T11:47:44.466Z,379
2022-10-14T11:49:27.871Z,324
2022-10-14T11:52:54.651Z,307
2022-10-14T11:54:38.067Z,346
2022-10-14T11:56:21.443Z,359
2022-10-14T11:58:04.832Z,357
2022-10-14T11:59:48.269Z,361
2022-10-14T12:01:31.958Z,356
2022-10-14T12:03:15.341Z,371
2022-10-14T12:04:58.723Z,387
2022-10-14T12:06:42.173Z,404
2022-10-14T12:08:25.531Z,435
2022-10-14T12:10:08.928Z,495
2022-10-14T12:11:52.359Z,555
2022-10-14T12:13:35.704Z,582
2022-10-14T12:17:02.203Z,561
2022-10-14T12:18:45.577Z,622
2022-10-14T12:20:28.983Z,664
2022-10-14T12:22:12.524Z,689
2022-10-14T12:23:55.777Z,761
2022-10-14T12:25:39.208Z,777
2022-10-14T12:27:22.604Z,778
2022-10-14T12:29:06.042Z,777
2022-10-14T12:30:49.654Z,777
2022-10-14T12:32:33.111Z,778
2022-10-14T12:34:16.537Z,778
2022-10-14T12:35:59.858Z,778
2022-10-14T12:37:43.278Z,777
2022-10-14T12:39:26.690Z,773
2022-10-14T12:41:10.167Z,753
2022-10-14T12:42:53.551Z,727
2022-10-14T12:44:37.149Z,712
2022-10-14T12:46:20.643Z,697
2022-10-14T12:48:03.953Z,675
2022-10-14T12:49:47.599Z,635
2022-10-14T12:51:30.775Z,618
2022-10-14T12:53:14.126Z,637
2022-10-14T12:54:57.547Z,654
2022-10-14T12:58:23.980Z,609
2022-10-14T13:00:07.389Z,585
2022-10-14T13:01:50.856Z,579
2022-10-14T13:03:34.173Z,530
2022-10-14T13:05:17.609Z,489
2022-10-14T13:07:01.036Z,445
2022-10-14T13:08:44.384Z,422
2022-10-14T13:10:27.779Z,405
2022-10-14T13:12:11.461Z,361
2022-10-14T13:13:54.927Z,317
2022-10-14T13:15:38.259Z,271
2022-10-14T13:17:21.824Z,260
2022-10-14T13:19:05.231Z,269
2022-10-14T13:20:48.570Z,285
2022-10-14T13:22:31.991Z,320
2022-10-14T13:24:15.346Z,322
2022-10-14T13:25:59.130Z,320
2022-10-14T13:27:42.481Z,323
2022-10-14T13:29:25.751Z,340
2022-10-14T13:31:09.251Z,390
2022-10-14T13:32:52.671Z,415
2022-10-14T13:34:36.081Z,412
2022-10-14T13:36:19.444Z,458
2022-10-14T13:39:45.827Z,485
2022-10-14T13:41:29.208Z,434
2022-10-14T13:43:12.725Z,431
2022-10-14T13:44:56.132Z,356
2022-10-14T13:46:39.515Z,318
2022-10-14T13:48:22.930Z,285
2022-10-14T13:50:06.365Z,270
2022-10-14T13:55:15.496Z,240
2022-10-14T13:56:58.834Z,233
2022-10-14T13:58:42.204Z,220
2022-10-14T14:00:25.773Z,230
2022-10-14T14:02:09.097Z,252
2022-10-14T14:03:52.409Z,263
2022-10-14T14:05:35.943Z,281
2022-10-14T14:09:02.256Z,261
2022-10-14T14:10:45.711Z,312
2022-10-14T14:12:29.077Z,342
2022-10-14T14:14:12.454Z,361
2022-10-14T14:15:55.826Z,350
2022-10-14T14:17:39.313Z,323
2022-10-14T14:19:22.785Z,294
2022-10-14T14:22:49.116Z,280
2022-10-14T14:24:32.525Z,289
2022-10-14T14:26:15.934Z,263
2022-10-14T14:27:59.303Z,229
2022-10-14T14:29:42.693Z,191
2022-10-14T14:31:26.143Z,163
2022-10-14T14:33:09.493Z,150
2022-10-14T14:38:18.720Z,201
2022-10-14T14:40:02.147Z,218
2022-10-14T14:41:45.517Z,233
2022-10-14T14:43:28.922Z,253
2022-10-14T14:45:12.350Z,273
2022-10-14T14:46:55.701Z,267
2022-10-14T14:48:39.108Z,220
2022-10-14T14:52:05.627Z,198
2022-10-14T14:53:48.996Z,205
2022-10-14T14:55:32.392Z,238
2022-10-14T14:57:15.776Z,281
2022-10-14T14:58:59.155Z,284
2022-10-14T15:00:42.609Z,238
2022-10-14T15:02:25.959Z,186
2022-10-14T15:07:35.203Z,184
2022-10-14T15:09:18.601Z,208
2022-10-14T15:11:02.050Z,218
2022-10-14T15:12:45.377Z,222
2022-10-14T15:14:28.797Z,218
2022-10-14T15:16:12.254Z,206
2022-10-14T15:17:55.574Z,186
2022-10-14T15:21:22.080Z,163
2022-10-14T15:23:05.441Z,154
2022-10-14T15:24:48.842Z,160
2022-10-14T15:26:32.219Z,155
2022-10-14T15:28:15.631Z,132
2022-10-14T15:29:59.047Z,107
2022-10-14T15:31:42.414Z,106
2022-10-14T15:33:25.823Z,105
2022-10-14T15:36:52.334Z,80
2022-10-14T15:38:35.677Z,72
2022-10-14T15:40:19.096Z,75
2022-10-14T15:42:02.534Z,83
2022-10-14T15:43:45.864Z,90
2022-10-14T15:45:29.318Z,99
2022-10-14T15:47:12.674Z,104
2022-10-14T15:52:21.906Z,94
2022-10-14T15:54:05.302Z,93
2022-10-14T15:55:48.739Z,90
2022-10-14T15:57:32.105Z,75
2022-10-14T15:59:15.503Z,56
2022-10-14T16:00:58.885Z,42
2022-10-14T16:02:42.291Z,31
2022-10-14T16:07:51.542Z,23
2022-10-14T16:09:34.970Z,22
2022-10-14T16:11:18.390Z,20
2022-10-14T16:13:01.719Z,17
2022-10-14T16:14:45.147Z,15
2022-10-14T16:16:28.514Z,14
2022-10-14T16:18:11.911Z,14
2022-10-14T16:19:55.355Z,14
2022-10-14T16:21:39.032Z,12
2022-10-14T16:23:22.425Z,11
2022-10-14T16:25:05.802Z,8
2022-10-14T16:26:49.236Z,7
2022-10-14T16:28:32.584Z,7
2022-10-14T16:30:16.001Z,7
2022-10-14T16:31:59.446Z,6
2022-10-14T16:37:08.677Z,6
2022-10-14T16:38:52.033Z,4
2022-10-14T16:40:35.446Z,5
2022-10-14T16:42:18.813Z,4
2022-10-14T16:44:02.217Z,3
2022-10-14T16:45:45.645Z,4
2022-10-14T16:47:29.003Z,4
2022-10-14T16:50:55.489Z,2
2022-10-14T16:52:38.930Z,3
2022-10-14T16:54:22.264Z,9
2022-10-14T16:56:05.693Z,9
2022-10-14T16:57:49.061Z,9
2022-10-14T16:59:32.455Z,9
2022-10-14T17:01:15.897Z,10
2022-10-14T17:02:59.248Z,10
2022-10-14T17:04:43.015Z,15
2022-10-14T17:06:26.350Z,15
2022-10-14T17:08:09.777Z,15
2022-10-14T17:09:53.135Z,16
2022-10-14T17:11:36.537Z,15
2022-10-14T17:13:19.981Z,15
2022-10-14T17:16:46.751Z,16
2022-10-14T17:20:13.263Z,15
2022-10-14T17:21:56.588Z,15
2022-10-14T17:23:40.023Z,14
2022-10-14T17:25:23.391Z,8
2022-10-14T17:27:06.782Z,8
2022-10-14T17:28:50.232Z,8
2022-10-14T17:30:33.623Z,8
2022-10-14T17:32:17.001Z,8
2022-10-14T17:34:00.681Z,8
2022-10-14T17:35:44.114Z,9
2022-10-14T17:37:27.468Z,9
2022-10-14T17:39:10.885Z,8
2022-10-14T17:40:54.317Z,8
2022-10-14T17:42:37.665Z,8
2022-10-14T17:44:21.079Z,9
2022-10-14T17:46:04.450Z,9
2022-10-14T17:47:48.200Z,8
2022-10-14T17:49:31.553Z,9
2022-10-14T17:51:14.958Z,8
2022-10-14T17:52:58.415Z,9
2022-10-14T17:54:41.741Z,8
2022-10-14T17:56:25.158Z,7
2022-10-14T17:58:08.532Z,7
2022-10-14T17:59:51.928Z,9
2022-10-14T18:03:18.491Z,8
2022-10-14T18:05:01.785Z,8
2022-10-14T18:06:45.204Z,8
2022-10-14T18:08:28.585Z,8
2022-10-14T18:10:12.030Z,9
2022-10-14T18:11:55.409Z,8
2022-10-14T18:13:38.819Z,8
2022-10-14T18:15:22.171Z,8
2022-10-14T18:17:05.875Z,8
2022-10-14T18:18:49.292Z,8
2022-10-14T18:20:32.735Z,8
2022-10-14T18:22:16.085Z,8
2022-10-14T18:23:59.498Z,8
2022-10-14T18:25:42.860Z,8
2022-10-14T18:27:26.258Z,8
2022-10-14T18:29:09.697Z,9
2022-10-14T18:30:53.375Z,8
2022-10-14T18:32:36.754Z,8
2022-10-14T18:34:20.147Z,8
2022-10-14T18:36:03.584Z,8
2022-10-14T18:37:46.947Z,7
2022-10-14T18:39:30.348Z,8
2022-10-14T18:41:13.782Z,8
2022-10-14T18:42:57.127Z,8
2022-10-14T18:44:40.840Z,8
2022-10-14T18:46:24.224Z,8
2022-10-14T18:48:07.665Z,8
2022-10-14T18:49:51.022Z,8
2022-10-14T18:51:34.435Z,8
2022-10-14T18:53:17.802Z,8
2022-10-14T18:55:01.205Z,8
2022-10-14T19:00:10.451Z,9
2022-10-14T19:01:53.872Z,8
2022-10-14T19:03:37.229Z,8
2022-10-14T19:05:20.655Z,8
2022-10-14T19:07:04.096Z,8
2022-10-14T19:08:47.435Z,8
2022-10-14T19:10:30.853Z,8
2022-10-14T19:13:57.296Z,8
2022-10-14T19:15:40.699Z,8
2022-10-14T19:17:24.121Z,7
2022-10-14T19:19:07.522Z,9
2022-10-14T19:20:50.897Z,8
2022-10-14T19:22:34.322Z,8
2022-10-14T19:24:17.711Z,7
2022-10-14T19:26:01.109Z,8
2022-10-14T19:29:27.541Z,8
2022-10-14T19:31:10.940Z,8
2022-10-14T19:32:54.364Z,8
2022-10-14T19:34:37.750Z,8
2022-10-14T19:36:21.124Z,8
2022-10-14T19:38:04.593Z,8
2022-10-14T19:39:47.946Z,7
2022-10-14T19:41:31.328Z,8
2022-10-14T19:43:15.013Z,8
2022-10-14T19:44:58.448Z,8
2022-10-14T19:46:41.802Z,8
2022-10-14T19:48:25.213Z,8
2022-10-14T19:50:08.649Z,8
2022-10-14T19:51:51.986Z,8
2022-10-14T19:53:35.409Z,8
2022-10-14T19:55:18.870Z,8
2022-10-14T19:58:45.258Z,8
2022-10-14T20:00:28.710Z,8
2022-10-14T20:02:12.061Z,8
2022-10-14T20:03:55.473Z,7
2022-10-14T20:05:38.836Z,8
2022-10-14T20:07:22.251Z,8
2022-10-14T20:09:05.713Z,8
2022-10-14T20:10:49.064Z,7
2022-10-14T20:14:15.502Z,8
2022-10-14T20:15:59.001Z,8
2022-10-14T20:17:42.375Z,8
2022-10-14T20:19:25.707Z,8
2022-10-14T20:21:09.080Z,8
2022-10-14T20:22:52.501Z,8
2022-10-14T20:24:35.921Z,8
2022-10-14T20:26:19.287Z,8
2022-10-14T20:29:45.764Z,7
2022-10-14T20:31:29.190Z,8
2022-10-14T20:33:12.555Z,8
2022-10-14T20:34:55.959Z,8
2022-10-14T20:36:39.327Z,8
2022-10-14T20:38:22.736Z,8
2022-10-14T20:40:06.160Z,7
2022-10-14T20:41:49.538Z,8
2022-10-14T20:43:33.281Z,8
2022-10-14T20:45:16.627Z,8
2022-10-14T20:47:00.047Z,8
2022-10-14T20:48:43.417Z,8
2022-10-14T20:50:26.824Z,8
2022-10-14T20:52:10.248Z,8
2022-10-14T20:53:53.611Z,8
2022-10-14T20:55:37.041Z,8
2022-10-14T20:59:03.526Z,8
2022-10-14T21:00:46.861Z,7
2022-10-14T21:02:30.289Z,7
2022-10-14T21:04:13.657Z,8
2022-10-14T21:05:57.061Z,8
2022-10-14T21:07:40.497Z,7
2022-10-14T21:09:23.858Z,8
2022-10-14T21:11:07.271Z,8
2022-10-14T21:14:33.741Z,8
2022-10-14T21:16:17.152Z,8
2022-10-14T21:18:00.536Z,8
2022-10-14T21:19:43.907Z,8
2022-10-14T21:21:27.312Z,8
2022-10-14T21:23:10.741Z,8
2022-10-14T21:24:54.100Z,8
2022-10-14T21:30:03.376Z,14
2022-10-14T21:31:46.801Z,10
2022-10-14T21:33:30.180Z,6
2022-10-14T21:35:13.517Z,7
2022-10-14T21:36:56.963Z,8
2022-10-14T21:38:40.357Z,9
2022-10-14T21:40:23.702Z,7
2022-10-14T21:42:07.177Z,8
2022-10-14T21:43:50.831Z,8
2022-10-14T21:45:34.265Z,9
2022-10-14T21:47:17.601Z,8
2022-10-14T21:49:01.041Z,8
2022-10-14T21:50:44.386Z,7
2022-10-14T21:52:27.791Z,8
2022-10-14T21:54:11.242Z,7
2022-10-14T21:55:54.577Z,8
2022-10-14T21:57:38.291Z,7
2022-10-14T21:59:21.681Z,8
2022-10-14T22:01:05.122Z,9
2022-10-14T22:02:48.464Z,8
2022-10-14T22:04:31.878Z,8
2022-10-14T22:06:15.319Z,8
2022-10-14T22:07:58.664Z,8
2022-10-14T22:09:42.075Z,8
2022-10-14T22:13:08.523Z,2
2022-10-14T22:14:51.945Z,2
2022-10-14T22:16:35.366Z,2
2022-10-14T22:18:18.711Z,2
2022-10-14T22:20:02.129Z,2
2022-10-14T22:21:45.561Z,2
2022-10-14T22:23:28.911Z,1
2022-10-14T22:25:12.331Z,1
2022-10-14T22:28:38.776Z,2
2022-10-14T22:30:22.173Z,2
2022-10-14T22:32:05.610Z,1
2022-10-14T22:33:48.963Z,1
2022-10-14T22:35:32.394Z,1
2022-10-14T22:37:15.812Z,2
2022-10-14T22:38:59.176Z,2
2022-10-14T22:40:42.585Z,2
2022-10-14T22:44:09.016Z,2
2022-10-14T22:45:52.413Z,2
2022-10-14T22:47:35.853Z,1
2022-10-14T22:49:19.210Z,2
2022-10-14T22:51:02.618Z,2
2022-10-14T22:52:46.000Z,2
2022-10-14T22:54:29.400Z,1
2022-10-14T22:56:12.827Z,2
2022-10-14T23:01:22.059Z,1
2022-10-14T23:03:05.419Z,1
2022-10-14T23:04:48.827Z,2
2022-10-14T23:06:32.266Z,1
2022-10-14T23:08:15.619Z,2
2022-10-14T23:09:59.046Z,1
2022-10-14T23:11:42.476Z,2
2022-10-14T23:13:25.808Z,1
2022-10-14T23:15:09.502Z,1
2022-10-14T23:16:52.914Z,2
2022-10-14T23:18:36.348Z,2
2022-10-14T23:20:19.701Z,2
2022-10-14T23:22:03.116Z,1
2022-10-14T23:23:46.491Z,2
2022-10-14T23:25:29.904Z,1
2022-10-14T23:27:13.314Z,2
2022-10-14T23:28:56.993Z,1
2022-10-14T23:30:40.441Z,1
2022-10-14T23:32:23.769Z,1
2022-10-14T23:34:07.203Z,2
2022-10-14T23:35:50.569Z,2
2022-10-14T23:37:33.976Z,2
2022-10-14T23:39:17.416Z,2
2022-10-14T23:41:00.745Z,2
2022-10-14T23:42:44.516Z,2
2022-10-14T23:44:27.850Z,2
2022-10-14T23:46:11.321Z,1
2022-10-14T23:47:54.689Z,0
2022-10-14T23:49:38.045Z,2
2022-10-14T23:51:21.483Z,2
2022-10-14T23:53:04.855Z,2
2022-10-14T23:54:48.274Z,1
2022-10-14T23:56:31.954Z,1
2022-10-14T23:58:15.383Z,1
2022-10-14T23:59:58.753Z,1
